sensor_id;sensor_type;location;lat;lon;timestamp;temperature;humidity
71551;DHT22;59367;48.414;9.872;2023-08-08T11:30:30;27.99343872;31.26525879
71551;DHT22;59367;48.414;9.872;2023-08-08T11:31:35;27.98008728;31.50024414
71551;DHT22;59367;48.414;9.872;2023-08-08T11:32:40;27.94804382;30.75408936
71551;DHT22;59367;48.414;9.872;2023-08-08T11:33:44;27.86526489;30.98602295
71551;DHT22;59367;48.414;9.872;2023-08-08T11:34:50;27.75311279;30.70831299
71551;DHT22;59367;48.414;9.872;2023-08-08T11:35:55;27.66765594;31.31103516
71551;DHT22;59367;48.414;9.872;2023-08-08T11:37:00;27.58220673;30.61981201
71551;DHT22;59367;48.414;9.872;2023-08-08T11:38:05;27.52613068;32.34100342
71551;DHT22;59367;48.414;9.872;2023-08-08T11:39:10;27.40062714;32.05871582
71551;DHT22;59367;48.414;9.872;2023-08-08T11:40:16;27.35523224;31.65588379
71551;DHT22;59367;48.414;9.872;2023-08-08T11:41:24;27.28313446;33.03222656
71551;DHT22;59367;48.414;9.872;2023-08-08T11:42:28;27.3418808;32.7545166
71551;DHT22;59367;48.414;9.872;2023-08-08T11:43:33;27.42733002;34.23309326
71551;DHT22;59367;48.414;9.872;2023-08-08T11:44:38;27.51277924;33.89892578
71551;DHT22;59367;48.414;9.872;2023-08-08T11:45:44;27.59555817;33.28094482
71551;DHT22;59367;48.414;9.872;2023-08-08T11:46:48;27.71038055;32.96508789
71551;DHT22;59367;48.414;9.872;2023-08-08T11:47:54;27.77981567;32.4508667
71551;DHT22;59367;48.414;9.872;2023-08-08T11:49:04;27.84924316;33.46862793
71551;DHT22;59367;48.414;9.872;2023-08-08T11:50:10;27.94804382;32.24182129
71551;DHT22;59367;48.414;9.872;2023-08-08T11:51:15;28.0655365;33.22143555
71551;DHT22;59367;48.414;9.872;2023-08-08T11:52:20;28.16166687;33.27484131
71551;DHT22;59367;48.414;9.872;2023-08-08T11:53:24;28.33257294;34.46655273
71551;DHT22;59367;48.414;9.872;2023-08-08T11:54:30;28.47142792;32.52868652
71551;DHT22;59367;48.414;9.872;2023-08-08T11:55:34;28.64499664;33.12530518
71551;DHT22;59367;48.414;9.872;2023-08-08T11:56:40;28.78385925;31.51245117
71551;DHT22;59367;48.414;9.872;2023-08-08T11:57:45;28.95475769;30.43823242
71551;DHT22;59367;48.414;9.872;2023-08-08T11:58:51;29.08026123;29.52270508
71551;DHT22;59367;48.414;9.872;2023-08-08T11:59:56;29.21110535;31.29425049
71551;DHT22;59367;48.414;9.872;2023-08-08T12:01:01;29.33661652;30.99212646
71551;DHT22;59367;48.414;9.872;2023-08-08T12:02:05;29.37934113;29.19158936
71551;DHT22;59367;48.414;9.872;2023-08-08T12:03:09;29.39269257;28.90777588
71551;DHT22;59367;48.414;9.872;2023-08-08T12:04:14;29.46479034;30.19561768
71551;DHT22;59367;48.414;9.872;2023-08-08T12:05:22;29.46479034;29.28466797
71551;DHT22;59367;48.414;9.872;2023-08-08T12:06:30;29.46479034;29.06341553
71551;DHT22;59367;48.414;9.872;2023-08-08T12:07:35;29.43541718;28.20892334
71551;DHT22;59367;48.414;9.872;2023-08-08T12:08:39;29.42206573;28.44696045
71551;DHT22;59367;48.414;9.872;2023-08-08T12:09:46;29.39269257;28.21807861
71551;DHT22;59367;48.414;9.872;2023-08-08T12:10:51;29.34996796;27.59094238
71551;DHT22;59367;48.414;9.872;2023-08-08T12:11:58;29.42206573;30.58319092
71551;DHT22;59367;48.414;9.872;2023-08-08T12:13:04;29.50484467;30.82733154
71551;DHT22;59367;48.414;9.872;2023-08-08T12:14:10;29.59029388;31.19354248
71551;DHT22;59367;48.414;9.872;2023-08-08T12:15:15;29.73181915;31.74591064
71551;DHT22;59367;48.414;9.872;2023-08-08T12:16:19;29.88937378;30.83190918
71551;DHT22;59367;48.414;9.872;2023-08-08T12:17:25;30.01487732;30.12237549
71551;DHT22;59367;48.414;9.872;2023-08-08T12:18:31;30.22583008;30.03845215
71551;DHT22;59367;48.414;9.872;2023-08-08T12:19:36;30.36736298;30.82733154
71551;DHT22;59367;48.414;9.872;2023-08-08T12:20:40;30.51155853;28.51867676
71551;DHT22;59367;48.414;9.872;2023-08-08T12:21:44;30.66643524;26.64642334
71551;DHT22;59367;48.414;9.872;2023-08-08T12:22:49;30.75189209;26.40991211
71551;DHT22;59367;48.414;9.872;2023-08-08T12:23:53;30.87739563;27.78320313
71551;DHT22;59367;48.414;9.872;2023-08-08T12:24:57;30.96284485;28.83911133
71551;DHT22;59367;48.414;9.872;2023-08-08T12:26:02;31.12039185;28.02886963
71551;DHT22;59367;48.414;9.872;2023-08-08T12:27:07;31.26192474;27.60467529
71551;DHT22;59367;48.414;9.872;2023-08-08T12:28:11;31.33135223;25.36010742
71551;DHT22;59367;48.414;9.872;2023-08-08T12:29:16;31.40077972;25.89111328
71551;DHT22;59367;48.414;9.872;2023-08-08T12:30:20;31.49958038;25.76293945
71551;DHT22;59367;48.414;9.872;2023-08-08T12:31:25;31.58769989;26.42822266
71551;DHT22;59367;48.414;9.872;2023-08-08T12:32:29;31.60105133;25.37994385
71551;DHT22;59367;48.414;9.872;2023-08-08T12:33:34;31.67047882;26.3168335
71551;DHT22;59367;48.414;9.872;2023-08-08T12:34:38;31.76928711;25.85906982
71551;DHT22;59367;48.414;9.872;2023-08-08T12:35:43;31.82803345;26.4465332
71551;DHT22;59367;48.414;9.872;2023-08-08T12:36:47;31.8841095;25.73242188
71551;DHT22;59367;48.414;9.872;2023-08-08T12:37:51;31.98291016;26.20391846
71551;DHT22;59367;48.414;9.872;2023-08-08T12:38:55;32.08171082;25.76293945
71551;DHT22;59367;48.414;9.872;2023-08-08T12:40:00;32.09773254;24.15618896
71551;DHT22;59367;48.414;9.872;2023-08-08T12:41:04;32.14045715;25.31433105
71551;DHT22;59367;48.414;9.872;2023-08-08T12:42:10;32.16716003;25.48065186
71551;DHT22;59367;48.414;9.872;2023-08-08T12:43:14;32.22323608;25.39672852
71551;DHT22;59367;48.414;9.872;2023-08-08T12:44:19;32.29534149;25.76293945
71551;DHT22;59367;48.414;9.872;2023-08-08T12:45:23;32.33539581;24.06463623
71551;DHT22;59367;48.414;9.872;2023-08-08T12:46:28;32.40749359;25.48370361
71551;DHT22;59367;48.414;9.872;2023-08-08T12:47:32;32.49294281;24.81231689
71551;DHT22;59367;48.414;9.872;2023-08-08T12:48:36;32.4502182;24.37286377
71551;DHT22;59367;48.414;9.872;2023-08-08T12:49:41;32.49294281;25.41656494
71551;DHT22;59367;48.414;9.872;2023-08-08T12:50:45;32.57839203;25.9185791
71551;DHT22;59367;48.414;9.872;2023-08-08T12:51:49;32.66384125;25.69885254
71551;DHT22;59367;48.414;9.872;2023-08-08T12:52:53;32.7199173;24.09210205
71551;DHT22;59367;48.414;9.872;2023-08-08T12:53:58;32.78935242;24.20349121
71551;DHT22;59367;48.414;9.872;2023-08-08T12:55:03;32.77600098;22.84393311
71551;DHT22;59367;48.414;9.872;2023-08-08T12:56:07;32.76264954;22.87597656
71551;DHT22;59367;48.414;9.872;2023-08-08T12:57:11;32.73326874;23.75335693
71551;DHT22;59367;48.414;9.872;2023-08-08T12:58:16;32.63446808;22.83477783
71551;DHT22;59367;48.414;9.872;2023-08-08T12:59:21;32.50896454;23.00872803
71551;DHT22;59367;48.414;9.872;2023-08-08T13:00:25;32.35141754;22.86529541
71551;DHT22;59367;48.414;9.872;2023-08-08T13:01:30;32.20988464;23.4375
71551;DHT22;59367;48.414;9.872;2023-08-08T13:02:34;32.01228333;23.45581055
71551;DHT22;59367;48.414;9.872;2023-08-08T13:03:38;31.79866028;23.10943604
71551;DHT22;59367;48.414;9.872;2023-08-08T13:04:43;31.64377594;25.05493164
71551;DHT22;59367;48.414;9.872;2023-08-08T13:05:47;31.44350433;23.89678955
71551;DHT22;59367;48.414;9.872;2023-08-08T13:06:52;31.23254395;23.64959717
71551;DHT22;59367;48.414;9.872;2023-08-08T13:07:56;31.13374329;25.03051758
71551;DHT22;59367;48.414;9.872;2023-08-08T13:09:00;31.0189209;25.27770996
71551;DHT22;59367;48.414;9.872;2023-08-08T13:10:05;30.87739563;24.87945557
71551;DHT22;59367;48.414;9.872;2023-08-08T13:11:10;30.6530838;23.27880859
71551;DHT22;59367;48.414;9.872;2023-08-08T13:12:14;30.48218536;24.64141846
71551;DHT22;59367;48.414;9.872;2023-08-08T13:13:18;30.38071442;25.10986328
71551;DHT22;59367;48.414;9.872;2023-08-08T13:14:23;30.26856232;25.68664551
71551;DHT22;59367;48.414;9.872;2023-08-08T13:15:27;30.15640259;26.171875
71551;DHT22;59367;48.414;9.872;2023-08-08T13:16:31;30.07095337;26.21154785
71551;DHT22;59367;48.414;9.872;2023-08-08T13:17:36;29.90272522;25.1083374
71551;DHT22;59367;48.414;9.872;2023-08-08T13:18:40;29.86000061;26.79290771
71551;DHT22;59367;48.414;9.872;2023-08-08T13:19:44;29.75852966;25.7232666
71551;DHT22;59367;48.414;9.872;2023-08-08T13:20:48;29.73181915;26.99127197
71551;DHT22;59367;48.414;9.872;2023-08-08T13:21:53;29.64636993;25.94146729
71551;DHT22;59367;48.414;9.872;2023-08-08T13:22:58;29.57694244;26.51519775
71551;DHT22;59367;48.414;9.872;2023-08-08T13:24:02;29.563591;26.42669678
71551;DHT22;59367;48.414;9.872;2023-08-08T13:25:07;29.50484467;26.51062012
71551;DHT22;59367;48.414;9.872;2023-08-08T13:26:12;29.47814178;27.07672119
71551;DHT22;59367;48.414;9.872;2023-08-08T13:27:16;29.44876862;27.68707275
71551;DHT22;59367;48.414;9.872;2023-08-08T13:28:20;29.40871429;28.17687988
71551;DHT22;59367;48.414;9.872;2023-08-08T13:29:24;29.33661652;26.33514404
71551;DHT22;59367;48.414;9.872;2023-08-08T13:30:29;29.22445679;26.57928467
71551;DHT22;59367;48.414;9.872;2023-08-08T13:31:33;29.16571045;27.00805664
71551;DHT22;59367;48.414;9.872;2023-08-08T13:32:37;29.05355835;24.79248047
71551;DHT22;59367;48.414;9.872;2023-08-08T13:33:42;28.92538452;25.14038086
71551;DHT22;59367;48.414;9.872;2023-08-08T13:34:46;28.7437973;26.24511719
71551;DHT22;59367;48.414;9.872;2023-08-08T13:35:50;28.70107269;26.83868408
71551;DHT22;59367;48.414;9.872;2023-08-08T13:36:54;28.58892059;27.32086182
71551;DHT22;59367;48.414;9.872;2023-08-08T13:37:59;28.55687714;28.14025879
71551;DHT22;59367;48.414;9.872;2023-08-08T13:39:04;28.48744965;27.26898193
71551;DHT22;59367;48.414;9.872;2023-08-08T13:40:09;28.40200043;27.29187012
71551;DHT22;59367;48.414;9.872;2023-08-08T13:41:14;28.34592438;27.16827393
71551;DHT22;59367;48.414;9.872;2023-08-08T13:42:18;28.24711609;27.10113525
71551;DHT22;59367;48.414;9.872;2023-08-08T13:43:22;28.23376465;27.44293213
71551;DHT22;59367;48.414;9.872;2023-08-08T13:44:27;28.19104004;28.55529785
71551;DHT22;59367;48.414;9.872;2023-08-08T13:45:31;28.10559082;28.46069336
71551;DHT22;59367;48.414;9.872;2023-08-08T13:46:35;28.02281189;28.5736084
71551;DHT22;59367;48.414;9.872;2023-08-08T13:47:39;28.00679016;28.39202881
71551;DHT22;59367;48.414;9.872;2023-08-08T13:48:44;27.96406555;28.34625244
71551;DHT22;59367;48.414;9.872;2023-08-08T13:49:48;27.9079895;28.92150879
71551;DHT22;59367;48.414;9.872;2023-08-08T13:50:52;27.86526489;29.42199707
71551;DHT22;59367;48.414;9.872;2023-08-08T13:51:57;27.80918884;28.94439697
71551;DHT22;59367;48.414;9.872;2023-08-08T13:53:01;27.77981567;29.11834717
71551;DHT22;59367;48.414;9.872;2023-08-08T13:54:05;27.73708344;28.83148193
71551;DHT22;59367;48.414;9.872;2023-08-08T13:55:10;27.6543045;28.54309082
71551;DHT22;59367;48.414;9.872;2023-08-08T13:56:14;27.62493134;28.86810303
71551;DHT22;59367;48.414;9.872;2023-08-08T13:57:19;27.63828278;28.36303711
71551;DHT22;59367;48.414;9.872;2023-08-08T13:58:23;27.63828278;29.01763916
71551;DHT22;59367;48.414;9.872;2023-08-08T13:59:27;27.6115799;29.56390381
71551;DHT22;59367;48.414;9.872;2023-08-08T14:00:32;27.59555817;30.21697998
71551;DHT22;59367;48.414;9.872;2023-08-08T14:01:36;27.59555817;29.99420166
71551;DHT22;59367;48.414;9.872;2023-08-08T14:02:41;27.59555817;29.14733887
71551;DHT22;59367;48.414;9.872;2023-08-08T14:03:45;27.58220673;28.7902832
71551;DHT22;59367;48.414;9.872;2023-08-08T14:04:50;27.55550385;28.78875732
71551;DHT22;59367;48.414;9.872;2023-08-08T14:05:54;27.47005463;28.43780518
71551;DHT22;59367;48.414;9.872;2023-08-08T14:06:58;27.42733002;29.28314209
71551;DHT22;59367;48.414;9.872;2023-08-08T14:08:02;27.37125397;29.06951904
71551;DHT22;59367;48.414;9.872;2023-08-08T14:09:07;27.3418808;29.33502197
71551;DHT22;59367;48.414;9.872;2023-08-08T14:10:12;27.25643158;28.3493042
71551;DHT22;59367;48.414;9.872;2023-08-08T14:11:16;27.17097473;28.68041992
71551;DHT22;59367;48.414;9.872;2023-08-08T14:12:20;27.15762329;29.42504883
71551;DHT22;59367;48.414;9.872;2023-08-08T14:13:24;27.11489868;29.49523926
71551;DHT22;59367;48.414;9.872;2023-08-08T14:14:29;27.07217407;28.70178223
71551;DHT22;59367;48.414;9.872;2023-08-08T14:15:33;27.04547119;28.84979248
71551;DHT22;59367;48.414;9.872;2023-08-08T14:16:37;27.00274658;28.78570557
71551;DHT22;59367;48.414;9.872;2023-08-08T14:17:41;26.93331909;29.37469482
71551;DHT22;59367;48.414;9.872;2023-08-08T14:18:46;26.86122131;28.90930176
71551;DHT22;59367;48.414;9.872;2023-08-08T14:19:50;26.73303986;28.57055664
71551;DHT22;59367;48.414;9.872;2023-08-08T14:20:54;26.69031525;28.77655029
71551;DHT22;59367;48.414;9.872;2023-08-08T14:21:58;26.66094208;28.81774902
71551;DHT22;59367;48.414;9.872;2023-08-08T14:23:03;26.64759064;29.02679443
71551;DHT22;59367;48.414;9.872;2023-08-08T14:24:07;26.59151459;30.02929688
71551;DHT22;59367;48.414;9.872;2023-08-08T14:25:12;26.56214142;29.4342041
71551;DHT22;59367;48.414;9.872;2023-08-08T14:26:16;26.50606537;29.9621582
71551;DHT22;59367;48.414;9.872;2023-08-08T14:27:20;26.44998932;29.58679199
71551;DHT22;59367;48.414;9.872;2023-08-08T14:28:24;26.46601105;29.8248291
71551;DHT22;59367;48.414;9.872;2023-08-08T14:29:29;26.39391327;28.95812988
71551;DHT22;59367;48.414;9.872;2023-08-08T14:30:33;26.38056183;29.35791016
71551;DHT22;59367;48.414;9.872;2023-08-08T14:31:37;26.36721039;29.25567627
71551;DHT22;59367;48.414;9.872;2023-08-08T14:32:41;26.33783722;29.39910889
71551;DHT22;59367;48.414;9.872;2023-08-08T14:33:46;26.28176117;29.72259521
71551;DHT22;59367;48.414;9.872;2023-08-08T14:34:50;26.23902893;30.03082275
71551;DHT22;59367;48.414;9.872;2023-08-08T14:35:54;26.26840973;30.03387451
71551;DHT22;59367;48.414;9.872;2023-08-08T14:36:59;26.252388;30.84564209
71551;DHT22;59367;48.414;9.872;2023-08-08T14:38:03;26.21232605;29.47998047
71551;DHT22;59367;48.414;9.872;2023-08-08T14:39:08;26.19630432;29.74243164
71551;DHT22;59367;48.414;9.872;2023-08-08T14:40:13;26.19630432;30.18951416
71551;DHT22;59367;48.414;9.872;2023-08-08T14:41:17;26.18295288;30.1864624
71551;DHT22;59367;48.414;9.872;2023-08-08T14:42:21;26.18295288;30.55725098
71551;DHT22;59367;48.414;9.872;2023-08-08T14:43:25;26.19630432;30.9463501
71551;DHT22;59367;48.414;9.872;2023-08-08T14:44:30;26.19630432;31.09283447
71551;DHT22;59367;48.414;9.872;2023-08-08T14:45:34;26.18295288;30.4977417
71551;DHT22;59367;48.414;9.872;2023-08-08T14:46:38;26.16960144;30.31921387
71551;DHT22;59367;48.414;9.872;2023-08-08T14:47:42;26.21232605;31.03637695
71551;DHT22;59367;48.414;9.872;2023-08-08T14:48:47;26.21232605;30.67932129
71551;DHT22;59367;48.414;9.872;2023-08-08T14:49:51;26.19630432;30.27801514
71551;DHT22;59367;48.414;9.872;2023-08-08T14:50:55;26.22567749;31.21490479
71551;DHT22;59367;48.414;9.872;2023-08-08T14:52:00;26.28176117;31.5032959
71551;DHT22;59367;48.414;9.872;2023-08-08T14:53:04;26.28176117;31.33850098
71551;DHT22;59367;48.414;9.872;2023-08-08T14:54:08;26.29511261;30.53741455
71551;DHT22;59367;48.414;9.872;2023-08-08T14:55:13;26.35118866;30.7220459
71551;DHT22;59367;48.414;9.872;2023-08-08T14:56:17;26.39391327;30.72662354
71551;DHT22;59367;48.414;9.872;2023-08-08T14:57:21;26.42328644;30.46112061
71551;DHT22;59367;48.414;9.872;2023-08-08T14:58:25;26.40726471;29.62646484
71551;DHT22;59367;48.414;9.872;2023-08-08T14:59:31;26.43663788;29.94232178
71551;DHT22;59367;48.414;9.872;2023-08-08T15:00:35;26.42328644;30.29937744
71551;DHT22;59367;48.414;9.872;2023-08-08T15:01:39;26.44998932;29.87060547
71551;DHT22;59367;48.414;9.872;2023-08-08T15:02:43;26.42328644;29.86907959
71551;DHT22;59367;48.414;9.872;2023-08-08T15:03:48;26.42328644;30.35888672
71551;DHT22;59367;48.414;9.872;2023-08-08T15:04:52;26.39391327;30.23681641
71551;DHT22;59367;48.414;9.872;2023-08-08T15:05:56;26.39391327;30.45959473
71551;DHT22;59367;48.414;9.872;2023-08-08T15:07:01;26.35118866;30.08422852
71551;DHT22;59367;48.414;9.872;2023-08-08T15:08:05;26.31113434;30.12237549
71551;DHT22;59367;48.414;9.872;2023-08-08T15:09:09;26.26840973;29.82330322
71551;DHT22;59367;48.414;9.872;2023-08-08T15:10:14;26.22567749;30.17578125
71551;DHT22;59367;48.414;9.872;2023-08-08T15:11:18;26.22567749;30.81359863
71551;DHT22;59367;48.414;9.872;2023-08-08T15:12:22;26.18295288;30.42449951
71551;DHT22;59367;48.414;9.872;2023-08-08T15:13:27;26.16960144;30.1864624
71551;DHT22;59367;48.414;9.872;2023-08-08T15:14:31;26.09483337;30.23986816
71551;DHT22;59367;48.414;9.872;2023-08-08T15:15:35;26.01205444;29.87823486
71551;DHT22;59367;48.414;9.872;2023-08-08T15:16:40;25.98268127;30.40618896
71551;DHT22;59367;48.414;9.872;2023-08-08T15:17:44;25.91325378;30.01556396
71551;DHT22;59367;48.414;9.872;2023-08-08T15:18:48;25.88388062;30.14831543
71551;DHT22;59367;48.414;9.872;2023-08-08T15:19:52;25.81445313;29.75616455
71551;DHT22;59367;48.414;9.872;2023-08-08T15:20:57;25.77172852;30.24139404
71551;DHT22;59367;48.414;9.872;2023-08-08T15:22:01;25.77172852;30.40466309
71551;DHT22;59367;48.414;9.872;2023-08-08T15:23:05;25.75837708;30.59692383
71551;DHT22;59367;48.414;9.872;2023-08-08T15:24:10;25.72899628;31.4956665
71551;DHT22;59367;48.414;9.872;2023-08-08T15:25:15;25.72899628;31.57196045
71551;DHT22;59367;48.414;9.872;2023-08-08T15:26:19;25.75837708;31.9152832
71551;DHT22;59367;48.414;9.872;2023-08-08T15:27:23;25.74501801;31.7199707
71551;DHT22;59367;48.414;9.872;2023-08-08T15:28:28;25.74501801;32.0022583
71551;DHT22;59367;48.414;9.872;2023-08-08T15:29:32;25.75837708;32.29980469
71551;DHT22;59367;48.414;9.872;2023-08-08T15:30:36;25.74501801;31.7199707
71551;DHT22;59367;48.414;9.872;2023-08-08T15:31:40;25.72899628;31.91070557
71551;DHT22;59367;48.414;9.872;2023-08-08T15:32:45;25.72899628;31.51245117
71551;DHT22;59367;48.414;9.872;2023-08-08T15:33:49;25.68627167;31.0333252
71551;DHT22;59367;48.414;9.872;2023-08-08T15:34:53;25.65956879;32.66143799
71551;DHT22;59367;48.414;9.872;2023-08-08T15:35:57;25.64621735;32.42340088
71551;DHT22;59367;48.414;9.872;2023-08-08T15:37:02;25.60349274;32.50732422
71551;DHT22;59367;48.414;9.872;2023-08-08T15:38:06;25.63019562;33.47167969
71551;DHT22;59367;48.414;9.872;2023-08-08T15:39:10;25.54741669;31.86645508
71551;DHT22;59367;48.414;9.872;2023-08-08T15:40:14;25.50202179;32.6751709
71551;DHT22;59367;48.414;9.872;2023-08-08T15:41:19;25.50202179;33.10546875
71551;DHT22;59367;48.414;9.872;2023-08-08T15:42:23;25.47264862;32.45239258
71551;DHT22;59367;48.414;9.872;2023-08-08T15:43:28;25.44594574;32.70263672
71551;DHT22;59367;48.414;9.872;2023-08-08T15:44:32;25.37384796;32.04040527
71551;DHT22;59367;48.414;9.872;2023-08-08T15:45:36;25.33379364;32.11212158
71551;DHT22;59367;48.414;9.872;2023-08-08T15:46:40;25.2750473;32.46154785
71551;DHT22;59367;48.414;9.872;2023-08-08T15:47:45;25.2750473;33.94317627
71551;DHT22;59367;48.414;9.872;2023-08-08T15:48:49;25.29106903;33.66394043
71551;DHT22;59367;48.414;9.872;2023-08-08T15:49:53;25.30442047;33.81195068
71551;DHT22;59367;48.414;9.872;2023-08-08T15:50:57;25.29106903;33.5144043
71551;DHT22;59367;48.414;9.872;2023-08-08T15:52:02;25.33379364;34.11407471
71551;DHT22;59367;48.414;9.872;2023-08-08T15:53:06;25.31777191;33.91723633
71551;DHT22;59367;48.414;9.872;2023-08-08T15:54:10;25.36049652;34.34753418
71551;DHT22;59367;48.414;9.872;2023-08-08T15:55:15;25.34714508;33.13446045
71551;DHT22;59367;48.414;9.872;2023-08-08T15:56:19;25.30442047;33.0871582
71551;DHT22;59367;48.414;9.872;2023-08-08T15:57:23;25.34714508;34.15527344
71551;DHT22;59367;48.414;9.872;2023-08-08T15:58:27;25.4325943;34.23309326
71551;DHT22;59367;48.414;9.872;2023-08-08T15:59:31;25.44594574;34.43756104
71551;DHT22;59367;48.414;9.872;2023-08-08T16:00:36;25.48867035;34.33380127
71551;DHT22;59367;48.414;9.872;2023-08-08T16:01:40;25.4325943;32.90557861
71551;DHT22;59367;48.414;9.872;2023-08-08T16:02:44;25.45929718;32.70263672
71551;DHT22;59367;48.414;9.872;2023-08-08T16:03:48;25.41657257;32.69805908
71551;DHT22;59367;48.414;9.872;2023-08-08T16:04:53;25.34714508;32.95593262
71551;DHT22;59367;48.414;9.872;2023-08-08T16:05:57;25.31777191;33.29772949
71551;DHT22;59367;48.414;9.872;2023-08-08T16:07:01;25.30442047;33.0871582
71551;DHT22;59367;48.414;9.872;2023-08-08T16:08:06;25.33379364;34.35974121
71551;DHT22;59367;48.414;9.872;2023-08-08T16:09:10;25.30442047;33.37097168
71551;DHT22;59367;48.414;9.872;2023-08-08T16:10:14;25.2750473;33.58764648
71551;DHT22;59367;48.414;9.872;2023-08-08T16:11:19;25.29106903;33.18786621
71551;DHT22;59367;48.414;9.872;2023-08-08T16:12:23;25.29106903;34.59472656
71551;DHT22;59367;48.414;9.872;2023-08-08T16:13:27;25.2750473;34.66186523
71551;DHT22;59367;48.414;9.872;2023-08-08T16:14:31;25.26169586;34.48486328
71551;DHT22;59367;48.414;9.872;2023-08-08T16:15:36;25.29106903;35.26763916
71551;DHT22;59367;48.414;9.872;2023-08-08T16:16:40;25.21896362;34.83123779
71551;DHT22;59367;48.414;9.872;2023-08-08T16:17:44;25.20561218;34.33227539
71551;DHT22;59367;48.414;9.872;2023-08-08T16:18:49;25.16288757;34.05914307
71551;DHT22;59367;48.414;9.872;2023-08-08T16:19:53;25.08010864;33.79211426
71551;DHT22;59367;48.414;9.872;2023-08-08T16:20:57;25.08010864;34.58862305
71551;DHT22;59367;48.414;9.872;2023-08-08T16:22:02;25.05073547;34.61303711
71551;DHT22;59367;48.414;9.872;2023-08-08T16:23:06;25.06408691;34.80377197
71551;DHT22;59367;48.414;9.872;2023-08-08T16:24:10;25.02403259;34.3963623
71551;DHT22;59367;48.414;9.872;2023-08-08T16:25:14;24.98130798;33.33892822
71551;DHT22;59367;48.414;9.872;2023-08-08T16:26:19;24.92256165;32.93304443
71551;DHT22;59367;48.414;9.872;2023-08-08T16:27:23;24.89318848;33.15124512
71551;DHT22;59367;48.414;9.872;2023-08-08T16:28:27;24.90653992;34.19647217
71551;DHT22;59367;48.414;9.872;2023-08-08T16:29:31;24.8664856;33.80126953
71551;DHT22;59367;48.414;9.872;2023-08-08T16:30:36;24.83711243;33.76922607
71551;DHT22;59367;48.414;9.872;2023-08-08T16:31:40;24.78103638;33.86688232
71551;DHT22;59367;48.414;9.872;2023-08-08T16:32:44;24.79438782;34.76409912
71551;DHT22;59367;48.414;9.872;2023-08-08T16:33:48;24.75166321;34.66644287
71551;DHT22;59367;48.414;9.872;2023-08-08T16:34:53;24.7249527;34.31549072
71551;DHT22;59367;48.414;9.872;2023-08-08T16:35:57;24.69557953;34.17663574
71551;DHT22;59367;48.414;9.872;2023-08-08T16:37:01;24.69557953;35.38513184
71551;DHT22;59367;48.414;9.872;2023-08-08T16:38:06;24.68222809;35.64147949
71551;DHT22;59367;48.414;9.872;2023-08-08T16:39:10;24.68222809;35.60028076
71551;DHT22;59367;48.414;9.872;2023-08-08T16:40:15;24.65285492;34.80529785
71551;DHT22;59367;48.414;9.872;2023-08-08T16:41:19;24.65285492;35.02044678
71551;DHT22;59367;48.414;9.872;2023-08-08T16:42:23;24.59677887;35.16082764
71551;DHT22;59367;48.414;9.872;2023-08-08T16:43:28;24.59677887;35.44464111
71551;DHT22;59367;48.414;9.872;2023-08-08T16:44:32;24.55672455;35.45379639
71551;DHT22;59367;48.414;9.872;2023-08-08T16:45:36;24.55672455;35.38513184
71551;DHT22;59367;48.414;9.872;2023-08-08T16:46:40;24.52735138;35.45074463
71551;DHT22;59367;48.414;9.872;2023-08-08T16:47:44;24.51399994;35.56976318
71551;DHT22;59367;48.414;9.872;2023-08-08T16:48:49;24.51399994;36.67144775
71551;DHT22;59367;48.414;9.872;2023-08-08T16:49:53;24.48462677;36.65466309
71551;DHT22;59367;48.414;9.872;2023-08-08T16:50:57;24.44190216;35.87188721
71551;DHT22;59367;48.414;9.872;2023-08-08T16:52:02;24.41519928;36.22894287
71551;DHT22;59367;48.414;9.872;2023-08-08T16:53:06;24.42855072;36.03057861
71551;DHT22;59367;48.414;9.872;2023-08-08T16:54:10;24.40184784;36.04125977
71551;DHT22;59367;48.414;9.872;2023-08-08T16:55:14;24.41519928;36.36474609
71551;DHT22;59367;48.414;9.872;2023-08-08T16:56:19;24.41519928;37.18414307
71551;DHT22;59367;48.414;9.872;2023-08-08T16:57:24;24.40184784;37.43743896
71551;DHT22;59367;48.414;9.872;2023-08-08T16:58:28;24.40184784;37.2756958
71551;DHT22;59367;48.414;9.872;2023-08-08T16:59:32;24.35912323;36.97814941
71551;DHT22;59367;48.414;9.872;2023-08-08T17:00:36;24.3431015;37.17651367
71551;DHT22;59367;48.414;9.872;2023-08-08T17:01:40;24.3431015;37.04376221
71551;DHT22;59367;48.414;9.872;2023-08-08T17:02:46;24.30037689;36.81030273
71551;DHT22;59367;48.414;9.872;2023-08-08T17:03:51;24.32975006;37.91351318
71551;DHT22;59367;48.414;9.872;2023-08-08T17:04:55;24.30037689;36.93237305
71551;DHT22;59367;48.414;9.872;2023-08-08T17:06:00;24.30037689;37.30773926
71551;DHT22;59367;48.414;9.872;2023-08-08T17:07:04;24.27100372;36.88659668
71551;DHT22;59367;48.414;9.872;2023-08-08T17:08:08;24.25765228;37.14294434
71551;DHT22;59367;48.414;9.872;2023-08-08T17:09:13;24.25765228;38.10577393
71551;DHT22;59367;48.414;9.872;2023-08-08T17:10:17;24.24429321;37.6083374
71551;DHT22;59367;48.414;9.872;2023-08-08T17:11:21;24.22827148;36.97814941
71551;DHT22;59367;48.414;9.872;2023-08-08T17:12:26;24.2015686;37.77770996